sensor_id;sensor_type;location;lat;lon;timestamp;P1;durP1;ratioP1;P2;durP2;ratioP2
55146;SDS011;41039;49.830;23.988;2023-06-10T00:01:50;13.32;;;11.45;;
55146;SDS011;41039;49.830;23.988;2023-06-10T00:04:15;16.13;;;11.23;;
55146;SDS011;41039;49.830;23.988;2023-06-10T00:06:41;14.00;;;10.48;;
55146;SDS011;41039;49.830;23.988;2023-06-10T00:09:07;12.00;;;10.45;;
55146;SDS011;41039;49.830;23.988;2023-06-10T00:11:39;10.85;;;9.50;;
55146;SDS011;41039;49.830;23.988;2023-06-10T00:14:05;12.90;;;11.15;;
55146;SDS011;41039;49.830;23.988;2023-06-10T00:16:30;11.48;;;9.65;;
55146;SDS011;41039;49.830;23.988;2023-06-10T00:18:55;12.95;;;9.77;;
55146;SDS011;41039;49.830;23.988;2023-06-10T00:21:21;11.05;;;9.13;;
55146;SDS011;41039;49.830;23.988;2023-06-10T00:23:46;12.48;;;8.82;;
55146;SDS011;41039;49.830;23.988;2023-06-10T00:26:12;9.63;;;8.10;;
55146;SDS011;41039;49.830;23.988;2023-06-10T00:28:37;11.10;;;8.70;;
55146;SDS011;41039;49.830;23.988;2023-06-10T00:31:02;10.43;;;7.37;;
55146;SDS011;41039;49.830;23.988;2023-06-10T00:33:29;11.88;;;8.52;;
55146;SDS011;41039;49.830;23.988;2023-06-10T00:35:54;12.23;;;8.80;;
55146;SDS011;41039;49.830;23.988;2023-06-10T00:38:19;9.55;;;7.85;;
55146;SDS011;41039;49.830;23.988;2023-06-10T00:40:45;10.40;;;8.20;;
55146;SDS011;41039;49.830;23.988;2023-06-10T00:43:10;8.88;;;7.57;;
55146;SDS011;41039;49.830;23.988;2023-06-10T00:45:36;10.00;;;7.45;;
55146;SDS011;41039;49.830;23.988;2023-06-10T00:48:01;9.80;;;7.35;;
55146;SDS011;41039;49.830;23.988;2023-06-10T00:50:27;12.00;;;7.82;;
55146;SDS011;41039;49.830;23.988;2023-06-10T00:52:53;9.07;;;6.80;;
55146;SDS011;41039;49.830;23.988;2023-06-10T00:55:18;10.63;;;7.85;;
55146;SDS011;41039;49.830;23.988;2023-06-10T00:57:44;8.50;;;7.13;;
55146;SDS011;41039;49.830;23.988;2023-06-10T01:00:11;8.35;;;7.43;;
55146;SDS011;41039;49.830;23.988;2023-06-10T01:02:37;10.13;;;7.57;;
55146;SDS011;41039;49.830;23.988;2023-06-10T01:05:02;10.18;;;7.28;;
55146;SDS011;41039;49.830;23.988;2023-06-10T01:07:31;11.23;;;7.88;;
55146;SDS011;41039;49.830;23.988;2023-06-10T01:10:19;7.82;;;7.03;;
55146;SDS011;41039;49.830;23.988;2023-06-10T01:12:52;14.68;;;7.30;;
55146;SDS011;41039;49.830;23.988;2023-06-10T01:15:18;9.35;;;7.63;;
55146;SDS011;41039;49.830;23.988;2023-06-10T01:18:01;11.73;;;7.00;;
55146;SDS011;41039;49.830;23.988;2023-06-10T01:20:28;10.40;;;7.60;;
55146;SDS011;41039;49.830;23.988;2023-06-10T01:22:56;11.65;;;7.28;;
55146;SDS011;41039;49.830;23.988;2023-06-10T01:25:22;9.48;;;6.60;;
55146;SDS011;41039;49.830;23.988;2023-06-10T01:27:53;9.45;;;7.53;;
55146;SDS011;41039;49.830;23.988;2023-06-10T01:30:19;8.30;;;7.50;;
55146;SDS011;41039;49.830;23.988;2023-06-10T01:32:49;10.13;;;7.72;;
55146;SDS011;41039;49.830;23.988;2023-06-10T01:35:15;11.40;;;7.85;;
55146;SDS011;41039;49.830;23.988;2023-06-10T01:37:40;8.95;;;7.60;;
55146;SDS011;41039;49.830;23.988;2023-06-10T01:40:06;9.73;;;8.20;;
55146;SDS011;41039;49.830;23.988;2023-06-10T01:42:33;10.50;;;7.35;;
55146;SDS011;41039;49.830;23.988;2023-06-10T01:44:58;11.20;;;7.00;;
55146;SDS011;41039;49.830;23.988;2023-06-10T01:47:24;9.70;;;7.00;;
55146;SDS011;41039;49.830;23.988;2023-06-10T01:49:49;7.65;;;6.80;;
55146;SDS011;41039;49.830;23.988;2023-06-10T01:52:14;8.93;;;6.68;;
55146;SDS011;41039;49.830;23.988;2023-06-10T01:54:41;9.77;;;7.57;;
55146;SDS011;41039;49.830;23.988;2023-06-10T01:57:06;7.43;;;6.13;;
55146;SDS011;41039;49.830;23.988;2023-06-10T01:59:31;8.73;;;6.78;;
55146;SDS011;41039;49.830;23.988;2023-06-10T02:01:57;7.32;;;6.55;;
55146;SDS011;41039;49.830;23.988;2023-06-10T02:04:22;8.07;;;6.73;;
55146;SDS011;41039;49.830;23.988;2023-06-10T02:06:47;9.38;;;6.63;;
55146;SDS011;41039;49.830;23.988;2023-06-10T02:09:13;7.88;;;6.43;;
55146;SDS011;41039;49.830;23.988;2023-06-10T02:11:38;9.07;;;6.40;;
55146;SDS011;41039;49.830;23.988;2023-06-10T02:14:04;8.30;;;6.32;;
55146;SDS011;41039;49.830;23.988;2023-06-10T02:16:29;7.60;;;6.32;;
55146;SDS011;41039;49.830;23.988;2023-06-10T02:18:54;10.93;;;6.60;;
55146;SDS011;41039;49.830;23.988;2023-06-10T02:21:19;11.63;;;6.97;;
55146;SDS011;41039;49.830;23.988;2023-06-10T02:23:45;7.32;;;6.20;;
55146;SDS011;41039;49.830;23.988;2023-06-10T02:26:10;8.00;;;6.53;;
55146;SDS011;41039;49.830;23.988;2023-06-10T02:28:35;10.48;;;8.27;;
55146;SDS011;41039;49.830;23.988;2023-06-10T02:31:00;8.27;;;6.80;;
55146;SDS011;41039;49.830;23.988;2023-06-10T02:33:26;8.60;;;6.30;;
55146;SDS011;41039;49.830;23.988;2023-06-10T02:35:52;9.13;;;6.70;;
55146;SDS011;41039;49.830;23.988;2023-06-10T02:38:17;7.70;;;6.13;;
55146;SDS011;41039;49.830;23.988;2023-06-10T02:40:43;8.15;;;6.57;;
55146;SDS011;41039;49.830;23.988;2023-06-10T02:43:08;8.68;;;6.32;;
55146;SDS011;41039;49.830;23.988;2023-06-10T02:45:33;7.05;;;5.93;;
55146;SDS011;41039;49.830;23.988;2023-06-10T02:47:59;7.38;;;5.93;;
55146;SDS011;41039;49.830;23.988;2023-06-10T02:50:24;6.57;;;5.50;;
55146;SDS011;41039;49.830;23.988;2023-06-10T02:52:49;8.13;;;6.03;;
55146;SDS011;41039;49.830;23.988;2023-06-10T02:55:15;11.38;;;6.28;;
55146;SDS011;41039;49.830;23.988;2023-06-10T02:57:40;7.60;;;5.38;;
55146;SDS011;41039;49.830;23.988;2023-06-10T03:00:06;10.30;;;6.55;;
55146;SDS011;41039;49.830;23.988;2023-06-10T03:02:35;7.75;;;6.20;;
55146;SDS011;41039;49.830;23.988;2023-06-10T03:05:02;8.93;;;6.18;;
55146;SDS011;41039;49.830;23.988;2023-06-10T03:07:27;10.48;;;5.95;;
55146;SDS011;41039;49.830;23.988;2023-06-10T03:09:52;7.60;;;5.73;;
55146;SDS011;41039;49.830;23.988;2023-06-10T03:12:18;7.20;;;5.33;;
55146;SDS011;41039;49.830;23.988;2023-06-10T03:14:43;6.23;;;5.57;;
55146;SDS011;41039;49.830;23.988;2023-06-10T03:17:08;7.53;;;6.03;;
55146;SDS011;41039;49.830;23.988;2023-06-10T03:19:33;9.30;;;6.00;;
55146;SDS011;41039;49.830;23.988;2023-06-10T03:24:33;9.82;;;6.60;;
55146;SDS011;41039;49.830;23.988;2023-06-10T03:27:00;8.30;;;6.60;;
55146;SDS011;41039;49.830;23.988;2023-06-10T03:29:26;9.55;;;6.88;;
55146;SDS011;41039;49.830;23.988;2023-06-10T03:31:51;8.73;;;6.50;;
55146;SDS011;41039;49.830;23.988;2023-06-10T03:34:16;9.00;;;6.77;;
55146;SDS011;41039;49.830;23.988;2023-06-10T03:36:41;9.53;;;6.63;;
55146;SDS011;41039;49.830;23.988;2023-06-10T03:39:07;9.05;;;6.80;;
55146;SDS011;41039;49.830;23.988;2023-06-10T03:41:33;9.90;;;6.63;;
55146;SDS011;41039;49.830;23.988;2023-06-10T03:43:58;8.60;;;6.73;;
55146;SDS011;41039;49.830;23.988;2023-06-10T03:46:23;10.90;;;6.63;;
55146;SDS011;41039;49.830;23.988;2023-06-10T03:48:48;8.77;;;7.00;;
55146;SDS011;41039;49.830;23.988;2023-06-10T03:51:14;10.38;;;7.15;;
55146;SDS011;41039;49.830;23.988;2023-06-10T03:53:40;10.20;;;6.85;;
55146;SDS011;41039;49.830;23.988;2023-06-10T03:56:05;12.02;;;7.47;;
55146;SDS011;41039;49.830;23.988;2023-06-10T03:58:30;10.80;;;7.13;;
55146;SDS011;41039;49.830;23.988;2023-06-10T04:00:55;7.25;;;6.32;;
55146;SDS011;41039;49.830;23.988;2023-06-10T04:03:21;7.47;;;5.68;;
55146;SDS011;41039;49.830;23.988;2023-06-10T04:05:46;10.63;;;6.88;;
55146;SDS011;41039;49.830;23.988;2023-06-10T04:08:11;10.60;;;6.90;;
55146;SDS011;41039;49.830;23.988;2023-06-10T04:10:37;9.23;;;6.65;;
55146;SDS011;41039;49.830;23.988;2023-06-10T04:13:02;10.25;;;6.07;;
55146;SDS011;41039;49.830;23.988;2023-06-10T04:15:28;10.07;;;6.03;;
55146;SDS011;41039;49.830;23.988;2023-06-10T04:17:53;11.15;;;6.75;;
55146;SDS011;41039;49.830;23.988;2023-06-10T04:20:18;11.85;;;7.18;;
55146;SDS011;41039;49.830;23.988;2023-06-10T04:22:44;7.20;;;5.88;;
55146;SDS011;41039;49.830;23.988;2023-06-10T04:25:09;7.80;;;6.40;;
55146;SDS011;41039;49.830;23.988;2023-06-10T04:27:34;9.85;;;8.25;;
55146;SDS011;41039;49.830;23.988;2023-06-10T04:30:00;8.65;;;6.45;;
55146;SDS011;41039;49.830;23.988;2023-06-10T04:32:25;11.77;;;6.82;;
55146;SDS011;41039;49.830;23.988;2023-06-10T04:34:51;10.27;;;7.88;;
55146;SDS011;41039;49.830;23.988;2023-06-10T04:37:16;10.47;;;8.60;;
55146;SDS011;41039;49.830;23.988;2023-06-10T04:39:41;8.10;;;5.83;;
55146;SDS011;41039;49.830;23.988;2023-06-10T04:42:07;8.13;;;6.60;;
55146;SDS011;41039;49.830;23.988;2023-06-10T04:44:32;8.60;;;6.68;;
55146;SDS011;41039;49.830;23.988;2023-06-10T04:46:57;7.57;;;6.13;;
55146;SDS011;41039;49.830;23.988;2023-06-10T04:49:22;10.03;;;6.33;;
55146;SDS011;41039;49.830;23.988;2023-06-10T04:51:48;9.17;;;6.50;;
55146;SDS011;41039;49.830;23.988;2023-06-10T04:54:13;10.73;;;6.93;;
55146;SDS011;41039;49.830;23.988;2023-06-10T04:56:38;9.82;;;6.68;;
55146;SDS011;41039;49.830;23.988;2023-06-10T04:59:04;9.35;;;6.93;;
55146;SDS011;41039;49.830;23.988;2023-06-10T05:01:29;10.70;;;6.65;;
55146;SDS011;41039;49.830;23.988;2023-06-10T05:03:54;9.73;;;5.85;;
55146;SDS011;41039;49.830;23.988;2023-06-10T05:06:20;7.45;;;6.57;;
55146;SDS011;41039;49.830;23.988;2023-06-10T05:08:45;9.48;;;6.65;;
55146;SDS011;41039;49.830;23.988;2023-06-10T05:11:10;7.10;;;5.90;;
55146;SDS011;41039;49.830;23.988;2023-06-10T05:13:35;8.60;;;6.50;;
55146;SDS011;41039;49.830;23.988;2023-06-10T05:16:01;8.32;;;6.40;;
55146;SDS011;41039;49.830;23.988;2023-06-10T05:18:26;9.77;;;7.03;;
55146;SDS011;41039;49.830;23.988;2023-06-10T05:20:51;9.35;;;7.00;;
55146;SDS011;41039;49.830;23.988;2023-06-10T05:23:18;9.43;;;6.85;;
55146;SDS011;41039;49.830;23.988;2023-06-10T05:25:44;11.93;;;6.80;;
55146;SDS011;41039;49.830;23.988;2023-06-10T05:28:09;8.90;;;6.80;;
55146;SDS011;41039;49.830;23.988;2023-06-10T05:30:35;9.52;;;6.47;;
55146;SDS011;41039;49.830;23.988;2023-06-10T05:33:00;9.27;;;6.38;;
55146;SDS011;41039;49.830;23.988;2023-06-10T05:35:25;9.23;;;6.57;;
55146;SDS011;41039;49.830;23.988;2023-06-10T05:37:51;7.78;;;6.13;;
55146;SDS011;41039;49.830;23.988;2023-06-10T05:40:16;8.37;;;5.83;;
55146;SDS011;41039;49.830;23.988;2023-06-10T05:42:41;12.80;;;7.40;;
55146;SDS011;41039;49.830;23.988;2023-06-10T05:45:06;7.73;;;6.50;;
55146;SDS011;41039;49.830;23.988;2023-06-10T05:47:32;8.82;;;6.50;;
55146;SDS011;41039;49.830;23.988;2023-06-10T05:49:57;9.70;;;7.17;;
55146;SDS011;41039;49.830;23.988;2023-06-10T05:52:22;9.80;;;7.32;;
55146;SDS011;41039;49.830;23.988;2023-06-10T05:54:48;10.43;;;6.87;;
55146;SDS011;41039;49.830;23.988;2023-06-10T05:57:14;8.68;;;7.03;;
55146;SDS011;41039;49.830;23.988;2023-06-10T05:59:39;10.15;;;6.90;;
55146;SDS011;41039;49.830;23.988;2023-06-10T06:02:05;10.32;;;6.97;;
55146;SDS011;41039;49.830;23.988;2023-06-10T06:04:30;11.95;;;7.32;;
55146;SDS011;41039;49.830;23.988;2023-06-10T06:06:55;11.25;;;6.95;;
55146;SDS011;41039;49.830;23.988;2023-06-10T06:09:21;8.80;;;7.22;;
55146;SDS011;41039;49.830;23.988;2023-06-10T06:11:46;9.50;;;8.55;;
55146;SDS011;41039;49.830;23.988;2023-06-10T06:14:11;8.90;;;7.55;;
55146;SDS011;41039;49.830;23.988;2023-06-10T06:16:36;8.85;;;8.05;;
55146;SDS011;41039;49.830;23.988;2023-06-10T06:19:02;11.63;;;8.53;;
55146;SDS011;41039;49.830;23.988;2023-06-10T06:21:27;13.52;;;9.15;;
55146;SDS011;41039;49.830;23.988;2023-06-10T06:23:52;9.27;;;8.37;;
55146;SDS011;41039;49.830;23.988;2023-06-10T06:26:17;9.50;;;8.55;;
55146;SDS011;41039;49.830;23.988;2023-06-10T06:28:43;10.40;;;8.85;;
55146;SDS011;41039;49.830;23.988;2023-06-10T06:31:08;10.68;;;8.40;;
55146;SDS011;41039;49.830;23.988;2023-06-10T06:33:33;9.70;;;8.70;;
55146;SDS011;41039;49.830;23.988;2023-06-10T06:35:58;9.85;;;8.88;;
55146;SDS011;41039;49.830;23.988;2023-06-10T06:38:25;10.13;;;8.75;;
55146;SDS011;41039;49.830;23.988;2023-06-10T06:40:51;10.25;;;9.25;;
55146;SDS011;41039;49.830;23.988;2023-06-10T06:43:16;9.82;;;8.80;;
55146;SDS011;41039;49.830;23.988;2023-06-10T06:45:42;9.60;;;8.60;;
55146;SDS011;41039;49.830;23.988;2023-06-10T06:48:07;11.02;;;9.35;;
55146;SDS011;41039;49.830;23.988;2023-06-10T06:50:32;11.35;;;9.15;;
55146;SDS011;41039;49.830;23.988;2023-06-10T06:52:58;11.00;;;8.53;;
55146;SDS011;41039;49.830;23.988;2023-06-10T06:55:23;11.37;;;8.87;;
55146;SDS011;41039;49.830;23.988;2023-06-10T06:57:48;10.87;;;9.50;;
55146;SDS011;41039;49.830;23.988;2023-06-10T07:00:13;13.50;;;9.93;;
55146;SDS011;41039;49.830;23.988;2023-06-10T07:02:39;10.57;;;9.48;;
55146;SDS011;41039;49.830;23.988;2023-06-10T07:05:05;11.50;;;10.30;;
55146;SDS011;41039;49.830;23.988;2023-06-10T07:07:30;11.43;;;10.23;;
55146;SDS011;41039;49.830;23.988;2023-06-10T07:09:55;10.17;;;9.17;;
55146;SDS011;41039;49.830;23.988;2023-06-10T07:12:21;11.55;;;9.45;;
55146;SDS011;41039;49.830;23.988;2023-06-10T07:14:49;12.15;;;9.68;;
55146;SDS011;41039;49.830;23.988;2023-06-10T07:17:14;12.38;;;10.93;;
55146;SDS011;41039;49.830;23.988;2023-06-10T07:19:39;16.70;;;10.00;;
55146;SDS011;41039;49.830;23.988;2023-06-10T07:22:04;10.57;;;9.47;;
55146;SDS011;41039;49.830;23.988;2023-06-10T07:24:30;11.25;;;9.68;;
55146;SDS011;41039;49.830;23.988;2023-06-10T07:26:55;10.70;;;9.50;;
55146;SDS011;41039;49.830;23.988;2023-06-10T07:29:20;16.00;;;9.80;;
55146;SDS011;41039;49.830;23.988;2023-06-10T07:31:45;11.50;;;9.80;;
55146;SDS011;41039;49.830;23.988;2023-06-10T07:34:11;12.50;;;9.47;;
55146;SDS011;41039;49.830;23.988;2023-06-10T07:36:36;11.98;;;10.15;;
55146;SDS011;41039;49.830;23.988;2023-06-10T07:39:01;11.05;;;9.50;;
55146;SDS011;41039;49.830;23.988;2023-06-10T07:41:26;11.23;;;8.77;;
55146;SDS011;41039;49.830;23.988;2023-06-10T07:43:55;12.32;;;9.65;;
55146;SDS011;41039;49.830;23.988;2023-06-10T07:46:21;10.48;;;8.82;;
55146;SDS011;41039;49.830;23.988;2023-06-10T07:48:47;11.02;;;9.82;;
55146;SDS011;41039;49.830;23.988;2023-06-10T07:51:12;9.95;;;8.73;;
55146;SDS011;41039;49.830;23.988;2023-06-10T07:53:37;11.35;;;9.38;;
55146;SDS011;41039;49.830;23.988;2023-06-10T07:56:02;12.27;;;9.17;;
55146;SDS011;41039;49.830;23.988;2023-06-10T07:58:28;14.93;;;9.07;;
55146;SDS011;41039;49.830;23.988;2023-06-10T08:00:53;11.70;;;9.23;;
55146;SDS011;41039;49.830;23.988;2023-06-10T08:03:19;13.40;;;9.98;;
55146;SDS011;41039;49.830;23.988;2023-06-10T08:05:44;11.00;;;8.70;;
55146;SDS011;41039;49.830;23.988;2023-06-10T08:08:09;13.23;;;9.35;;
55146;SDS011;41039;49.830;23.988;2023-06-10T08:10:35;10.15;;;9.10;;
55146;SDS011;41039;49.830;23.988;2023-06-10T08:13:00;11.95;;;9.10;;
55146;SDS011;41039;49.830;23.988;2023-06-10T08:15:25;11.32;;;9.90;;
55146;SDS011;41039;49.830;23.988;2023-06-10T08:17:50;12.93;;;8.60;;
55146;SDS011;41039;49.830;23.988;2023-06-10T08:20:17;11.13;;;9.93;;
55146;SDS011;41039;49.830;23.988;2023-06-10T08:22:42;11.35;;;9.93;;
55146;SDS011;41039;49.830;23.988;2023-06-10T08:25:08;12.70;;;10.52;;
55146;SDS011;41039;49.830;23.988;2023-06-10T08:27:33;14.23;;;11.50;;
55146;SDS011;41039;49.830;23.988;2023-06-10T08:29:58;12.05;;;10.93;;
55146;SDS011;41039;49.830;23.988;2023-06-10T08:32:25;12.60;;;9.80;;
55146;SDS011;41039;49.830;23.988;2023-06-10T08:34:50;12.85;;;10.07;;
55146;SDS011;41039;49.830;23.988;2023-06-10T08:37:16;13.68;;;10.57;;
55146;SDS011;41039;49.830;23.988;2023-06-10T08:39:41;12.30;;;10.20;;
55146;SDS011;41039;49.830;23.988;2023-06-10T08:44:37;12.50;;;11.20;;
55146;SDS011;41039;49.830;23.988;2023-06-10T08:47:15;15.52;;;10.77;;
55146;SDS011;41039;49.830;23.988;2023-06-10T08:49:41;14.98;;;11.25;;
55146;SDS011;41039;49.830;23.988;2023-06-10T08:52:08;12.25;;;10.95;;
55146;SDS011;41039;49.830;23.988;2023-06-10T08:54:36;13.05;;;10.68;;
55146;SDS011;41039;49.830;23.988;2023-06-10T08:57:03;12.40;;;11.10;;
55146;SDS011;41039;49.830;23.988;2023-06-10T08:59:31;12.43;;;10.40;;
55146;SDS011;41039;49.830;23.988;2023-06-10T09:01:56;18.17;;;11.75;;
55146;SDS011;41039;49.830;23.988;2023-06-10T09:04:22;10.73;;;9.73;;
55146;SDS011;41039;49.830;23.988;2023-06-10T09:06:49;12.98;;;10.35;;
55146;SDS011;41039;49.830;23.988;2023-06-10T09:09:15;14.85;;;11.18;;
55146;SDS011;41039;49.830;23.988;2023-06-10T09:11:43;11.98;;;10.23;;
55146;SDS011;41039;49.830;23.988;2023-06-10T09:14:08;12.05;;;10.77;;
55146;SDS011;41039;49.830;23.988;2023-06-10T09:16:34;13.05;;;10.73;;
55146;SDS011;41039;49.830;23.988;2023-06-10T09:18:59;11.35;;;10.15;;
55146;SDS011;41039;49.830;23.988;2023-06-10T09:21:24;10.73;;;9.63;;
55146;SDS011;41039;49.830;23.988;2023-06-10T09:23:50;10.35;;;9.35;;
55146;SDS011;41039;49.830;23.988;2023-06-10T09:26:15;16.33;;;9.00;;
55146;SDS011;41039;49.830;23.988;2023-06-10T09:28:41;10.57;;;9.37;;
55146;SDS011;41039;49.830;23.988;2023-06-10T09:31:08;9.60;;;8.60;;
55146;SDS011;41039;49.830;23.988;2023-06-10T09:33:36;9.95;;;8.38;;
55146;SDS011;41039;49.830;23.988;2023-06-10T09:36:02;9.43;;;8.00;;
55146;SDS011;41039;49.830;23.988;2023-06-10T09:38:31;11.15;;;9.05;;
55146;SDS011;41039;49.830;23.988;2023-06-10T09:40:56;10.00;;;8.25;;
55146;SDS011;41039;49.830;23.988;2023-06-10T09:43:22;10.38;;;9.00;;
55146;SDS011;41039;49.830;23.988;2023-06-10T09:45:48;8.13;;;7.38;;
55146;SDS011;41039;49.830;23.988;2023-06-10T09:48:13;8.93;;;8.07;;
55146;SDS011;41039;49.830;23.988;2023-06-10T09:50:42;8.97;;;8.07;;
55146;SDS011;41039;49.830;23.988;2023-06-10T09:53:08;10.23;;;7.35;;
55146;SDS011;41039;49.830;23.988;2023-06-10T09:55:34;9.70;;;8.32;;
55146;SDS011;41039;49.830;23.988;2023-06-10T09:58:00;9.73;;;7.78;;
55146;SDS011;41039;49.830;23.988;2023-06-10T10:00:25;10.77;;;8.63;;
55146;SDS011;41039;49.830;23.988;2023-06-10T10:02:51;9.70;;;7.68;;
55146;SDS011;41039;49.830;23.988;2023-06-10T10:05:18;8.85;;;7.85;;
55146;SDS011;41039;49.830;23.988;2023-06-10T10:07:43;9.80;;;7.85;;
55146;SDS011;41039;49.830;23.988;2023-06-10T10:10:09;10.77;;;7.68;;
55146;SDS011;41039;49.830;23.988;2023-06-10T10:12:35;9.70;;;7.50;;
55146;SDS011;41039;49.830;23.988;2023-06-10T10:15:00;10.07;;;7.60;;
55146;SDS011;41039;49.830;23.988;2023-06-10T10:17:27;10.65;;;7.35;;
55146;SDS011;41039;49.830;23.988;2023-06-10T10:19:57;10.48;;;7.90;;
55146;SDS011;41039;49.830;23.988;2023-06-10T10:22:29;8.45;;;7.55;;
55146;SDS011;41039;49.830;23.988;2023-06-10T10:24:59;8.88;;;7.97;;
55146;SDS011;41039;49.830;23.988;2023-06-10T10:27:27;8.90;;;7.97;;
55146;SDS011;41039;49.830;23.988;2023-06-10T10:29:53;9.45;;;8.43;;
55146;SDS011;41039;49.830;23.988;2023-06-10T10:32:19;8.63;;;7.53;;
55146;SDS011;41039;49.830;23.988;2023-06-10T10:37:11;15.47;;;8.20;;
55146;SDS011;41039;49.830;23.988;2023-06-10T10:39:36;13.83;;;7.40;;
55146;SDS011;41039;49.830;23.988;2023-06-10T10:42:02;12.85;;;8.55;;
55146;SDS011;41039;49.830;23.988;2023-06-10T10:44:28;7.85;;;6.68;;
55146;SDS011;41039;49.830;23.988;2023-06-10T10:46:54;7.47;;;6.63;;
55146;SDS011;41039;49.830;23.988;2023-06-10T10:49:20;9.27;;;7.35;;
55146;SDS011;41039;49.830;23.988;2023-06-10T10:52:11;9.52;;;7.15;;
55146;SDS011;41039;49.830;23.988;2023-06-10T10:54:33;8.75;;;6.68;;
55146;SDS011;41039;49.830;23.988;2023-06-10T11:02:10;7.63;;;6.05;;
55146;SDS011;41039;49.830;23.988;2023-06-10T11:04:35;9.93;;;6.60;;
55146;SDS011;41039;49.830;23.988;2023-06-10T11:07:06;7.35;;;6.30;;
55146;SDS011;41039;49.830;23.988;2023-06-10T11:09:32;9.57;;;7.28;;
55146;SDS011;41039;49.830;23.988;2023-06-10T11:11:57;7.20;;;6.53;;
55146;SDS011;41039;49.830;23.988;2023-06-10T11:14:28;7.53;;;6.28;;
55146;SDS011;41039;49.830;23.988;2023-06-10T11:16:53;11.15;;;6.45;;
55146;SDS011;41039;49.830;23.988;2023-06-10T11:19:37;7.75;;;6.18;;
55146;SDS011;41039;49.830;23.988;2023-06-10T11:22:05;7.93;;;6.15;;
55146;SDS011;41039;49.830;23.988;2023-06-10T11:24:30;8.63;;;6.72;;
55146;SDS011;41039;49.830;23.988;2023-06-10T11:27:14;6.43;;;5.72;;
55146;SDS011;41039;49.830;23.988;2023-06-10T11:29:39;7.65;;;6.20;;
55146;SDS011;41039;49.830;23.988;2023-06-10T11:32:05;9.07;;;6.40;;
55146;SDS011;41039;49.830;23.988;2023-06-10T11:34:31;10.30;;;6.25;;
55146;SDS011;41039;49.830;23.988;2023-06-10T11:36:56;7.80;;;6.70;;
55146;SDS011;41039;49.830;23.988;2023-06-10T11:39:22;7.07;;;6.03;;
55146;SDS011;41039;49.830;23.988;2023-06-10T11:41:49;9.32;;;7.60;;
55146;SDS011;41039;49.830;23.988;2023-06-10T11:44:15;9.32;;;6.88;;
55146;SDS011;41039;49.830;23.988;2023-06-10T11:46:41;9.13;;;6.57;;
55146;SDS011;41039;49.830;23.988;2023-06-10T11:49:07;7.80;;;6.50;;
55146;SDS011;41039;49.830;23.988;2023-06-10T11:51:34;8.93;;;7.32;;
55146;SDS011;41039;49.830;23.988;2023-06-10T11:54:00;9.38;;;6.80;;
55146;SDS011;41039;49.830;23.988;2023-06-10T11:56:26;7.53;;;6.82;;
55146;SDS011;41039;49.830;23.988;2023-06-10T11:59:02;9.43;;;8.25;;
55146;SDS011;41039;49.830;23.988;2023-06-10T12:01:34;8.77;;;7.40;;
55146;SDS011;41039;49.830;23.988;2023-06-10T12:04:04;8.25;;;7.45;;
55146;SDS011;41039;49.830;23.988;2023-06-10T12:06:48;15.75;;;9.48;;
55146;SDS011;41039;49.830;23.988;2023-06-10T12:09:24;9.85;;;7.15;;
55146;SDS011;41039;49.830;23.988;2023-06-10T12:11:50;9.55;;;7.57;;
55146;SDS011;41039;49.830;23.988;2023-06-10T12:14:16;8.25;;;6.97;;
55146;SDS011;41039;49.830;23.988;2023-06-10T12:16:48;11.38;;;7.18;;
55146;SDS011;41039;49.830;23.988;2023-06-10T12:19:13;8.80;;;7.20;;
55146;SDS011;41039;49.830;23.988;2023-06-10T12:21:38;9.10;;;6.72;;
55146;SDS011;41039;49.830;23.988;2023-06-10T12:27:03;8.23;;;6.88;;
55146;SDS011;41039;49.830;23.988;2023-06-10T12:29:22;7.07;;;6.38;;
55146;SDS011;41039;49.830;23.988;2023-06-10T12:31:53;13.77;;;6.97;;
55146;SDS011;41039;49.830;23.988;2023-06-10T12:34:18;6.75;;;6.05;;
55146;SDS011;41039;49.830;23.988;2023-06-10T12:36:48;7.13;;;6.13;;
55146;SDS011;41039;49.830;23.988;2023-06-10T12:39:13;6.63;;;5.30;;
55146;SDS011;41039;49.830;23.988;2023-06-10T12:41:38;7.70;;;5.27;;
55146;SDS011;41039;49.830;23.988;2023-06-10T12:44:04;8.23;;;6.22;;
55146;SDS011;41039;49.830;23.988;2023-06-10T12:46:35;6.38;;;5.28;;
55146;SDS011;41039;49.830;23.988;2023-06-10T12:49:00;6.80;;;5.47;;
55146;SDS011;41039;49.830;23.988;2023-06-10T12:51:26;7.67;;;5.43;;
55146;SDS011;41039;49.830;23.988;2023-06-10T12:53:51;11.07;;;6.27;;
55146;SDS011;41039;49.830;23.988;2023-06-10T12:56:17;6.15;;;5.45;;
55146;SDS011;41039;49.830;23.988;2023-06-10T12:58:42;7.90;;;5.93;;
55146;SDS011;41039;49.830;23.988;2023-06-10T13:01:07;6.77;;;6.07;;
55146;SDS011;41039;49.830;23.988;2023-06-10T13:03:33;6.88;;;6.03;;
55146;SDS011;41039;49.830;23.988;2023-06-10T13:05:59;8.95;;;6.22;;
55146;SDS011;41039;49.830;23.988;2023-06-10T13:08:24;8.75;;;6.78;;
55146;SDS011;41039;49.830;23.988;2023-06-10T13:10:49;7.18;;;6.50;;
55146;SDS011;41039;49.830;23.988;2023-06-10T13:13:15;7.60;;;6.82;;
55146;SDS011;41039;49.830;23.988;2023-06-10T13:15:40;9.90;;;6.95;;
55146;SDS011;41039;49.830;23.988;2023-06-10T13:18:08;7.88;;;6.35;;
55146;SDS011;41039;49.830;23.988;2023-06-10T13:20:34;9.10;;;7.22;;
55146;SDS011;41039;49.830;23.988;2023-06-10T13:22:59;10.52;;;9.40;;
55146;SDS011;41039;49.830;23.988;2023-06-10T13:25:24;9.90;;;6.80;;
55146;SDS011;41039;49.830;23.988;2023-06-10T13:27:50;10.47;;;7.90;;
55146;SDS011;41039;49.830;23.988;2023-06-10T13:30:15;10.77;;;7.78;;
55146;SDS011;41039;49.830;23.988;2023-06-10T13:32:40;10.07;;;7.43;;
55146;SDS011;41039;49.830;23.988;2023-06-10T13:35:06;10.30;;;7.70;;
55146;SDS011;41039;49.830;23.988;2023-06-10T13:37:32;11.68;;;7.57;;
55146;SDS011;41039;49.830;23.988;2023-06-10T13:39:58;9.02;;;7.72;;
55146;SDS011;41039;49.830;23.988;2023-06-10T13:42:23;9.90;;;7.15;;
55146;SDS011;41039;49.830;23.988;2023-06-10T13:44:51;8.05;;;7.15;;
55146;SDS011;41039;49.830;23.988;2023-06-10T13:47:16;11.57;;;7.03;;
55146;SDS011;41039;49.830;23.988;2023-06-10T13:49:42;13.38;;;7.40;;
55146;SDS011;41039;49.830;23.988;2023-06-10T13:52:07;9.40;;;6.22;;
55146;SDS011;41039;49.830;23.988;2023-06-10T13:54:33;9.27;;;5.85;;
55146;SDS011;41039;49.830;23.988;2023-06-10T13:56:58;9.05;;;6.20;;
55146;SDS011;41039;49.830;23.988;2023-06-10T13:59:25;10.18;;;6.10;;
55146;SDS011;41039;49.830;23.988;2023-06-10T14:01:51;9.38;;;6.32;;
55146;SDS011;41039;49.830;23.988;2023-06-10T14:04:16;7.13;;;6.20;;
55146;SDS011;41039;49.830;23.988;2023-06-10T14:06:41;7.50;;;6.10;;
55146;SDS011;41039;49.830;23.988;2023-06-10T14:09:06;9.90;;;6.38;;
55146;SDS011;41039;49.830;23.988;2023-06-10T14:11:32;11.65;;;6.35;;
55146;SDS011;41039;49.830;23.988;2023-06-10T14:13:57;13.02;;;7.40;;
55146;SDS011;41039;49.830;23.988;2023-06-10T14:16:23;9.45;;;7.57;;
55146;SDS011;41039;49.830;23.988;2023-06-10T14:18:49;13.00;;;7.18;;
55146;SDS011;41039;49.830;23.988;2023-06-10T14:21:16;10.63;;;6.70;;
55146;SDS011;41039;49.830;23.988;2023-06-10T14:23:41;10.85;;;7.25;;
55146;SDS011;41039;49.830;23.988;2023-06-10T14:26:08;7.70;;;6.50;;
55146;SDS011;41039;49.830;23.988;2023-06-10T14:28:33;8.93;;;7.15;;
55146;SDS011;41039;49.830;23.988;2023-06-10T14:30:58;11.47;;;6.53;;
55146;SDS011;41039;49.830;23.988;2023-06-10T14:33:23;7.17;;;6.43;;
55146;SDS011;41039;49.830;23.988;2023-06-10T14:35:49;7.22;;;5.68;;
55146;SDS011;41039;49.830;23.988;2023-06-10T14:38:14;9.70;;;6.22;;